Fox Challenger — LEJJ — position and weather

sailwx.info

Track history (hours):
 
Tides and Currents Weather Stations Pressure Air Temp Water Temp Dewpoint Dewpoint Depression Visibility Wind Speed Wind Dir Waves Ship Positions

Fox Challenger

Last reported at 2018-Jul-19 16:30 UTC. Time now 2018-Jul-22 14:00 UTC.
Position N 59°53' E 005°33'.

Length 30 m; draft 3 m.

Type: Tug. MMSI: 257785500.

Date/timePositionNaut miles runAvg speedWind from/ knotsBaromVisibWave heightAir tempDewpointWater temp
2018-Jul-19 16:30N 59°53' E 005°33'5 9.3
2018-Jul-19 16:00N 59°50' E 005°40'4 8.6
2018-Jul-19 15:29N 59°48' E 005°47'2 3.2
2018-Jul-19 15:00N 59°49' E 005°46'8 7.7
2018-Jul-19 14:00N 59°47' E 005°32'0 0.1
2018-Jul-19 13:27N 59°47' E 005°32'0 0.1
2018-Jul-19 12:49N 59°47' E 005°31'0 0.1
2018-Jul-19 12:27N 59°47' E 005°32'0 0.1
2018-Jul-19 11:56N 59°47' E 005°31'0 0.6
2018-Jul-19 11:29N 59°47' E 005°31'2 3.2
2018-Jul-19 10:59N 59°48' E 005°33'3 6.2
2018-Jul-19 10:30N 59°51' E 005°32'3 6.0
2018-Jul-19 09:55N 59°55' E 005°31'  
Track history (hours):
 
Tides and Currents Weather Stations Pressure Air Temp Water Temp Dewpoint Dewpoint Depression Visibility Wind Speed Wind Dir Waves Ship Positions

Fox Challenger

Last reported at 2018-Jul-19 16:30 UTC. Time now 2018-Jul-22 14:00 UTC.
Position N 59°53' E 005°33'.

Length 30 m; draft 3 m.

Type: Tug. MMSI: 257785500.

Date/timePositionNaut miles runAvg speedWind from/ knotsBaromVisibWave heightAir tempDewpointWater temp
2018-Jul-19 16:30N 59°53' E 005°33'5 9.3
2018-Jul-19 16:00N 59°50' E 005°40'4 8.6
2018-Jul-19 15:29N 59°48' E 005°47'2 3.2
2018-Jul-19 15:00N 59°49' E 005°46'8 7.7
2018-Jul-19 14:00N 59°47' E 005°32'0 0.1
2018-Jul-19 13:27N 59°47' E 005°32'0 0.1
2018-Jul-19 12:49N 59°47' E 005°31'0 0.1
2018-Jul-19 12:27N 59°47' E 005°32'0 0.1
2018-Jul-19 11:56N 59°47' E 005°31'0 0.6
2018-Jul-19 11:29N 59°47' E 005°31'2 3.2
2018-Jul-19 10:59N 59°48' E 005°33'3 6.2
2018-Jul-19 10:30N 59°51' E 005°32'3 6.0
2018-Jul-19 09:55N 59°55' E 005°31'  

Dump ship's entire track history